Time;durP1;ratioP1;P1;durP2;ratioP2;P2;SDS_P1;SDS_P2;PMS_P1;PMS_P2;Temp;Humidity;BMP_temperature;BMP_pressure;BME280_temperature;BME280_humidity;BME280_pressure;Samples;Min_cycle;Max_cycle;Signal;HPM_P1;HPM_P2
2024/03/28 00:02:22;;;;;;;30.52;11.55;;;;;;;10.76;80.04;92816.00;5103664;28;20311;-80
2024/03/28 00:04:47;;;;;;;27.88;12.07;;;;;;;10.78;79.69;92806.53;5103796;28;20032;-79
2024/03/28 00:07:12;;;;;;;41.78;12.55;;;;;;;10.74;79.64;92815.56;5085400;28;20077;-78
2024/03/28 00:09:38;;;;;;;45.78;13.73;;;;;;;10.71;79.58;92808.25;5103564;28;20083;-79
2024/03/28 00:12:05;;;;;;;36.33;12.68;;;;;;;10.70;79.77;92802.13;5102987;28;20019;-79
2024/03/28 00:14:32;;;;;;;52.20;13.55;;;;;;;10.72;79.67;92796.47;5103560;28;20077;-79
2024/03/28 00:16:57;;;;;;;41.90;14.07;;;;;;;10.71;79.82;92798.38;5103279;28;20028;-79
2024/03/28 00:19:22;;;;;;;35.47;11.85;;;;;;;10.74;79.72;92796.91;5103409;28;20102;-81
2024/03/28 00:21:48;;;;;;;40.33;12.55;;;;;;;10.73;80.00;92812.13;5103207;28;20046;-80
2024/03/28 00:24:13;;;;;;;51.97;12.45;;;;;;;10.71;80.52;92802.94;5085193;28;20303;-81
2024/03/28 00:26:39;;;;;;;38.90;12.25;;;;;;;10.72;80.57;92791.16;5103261;28;20019;-81
2024/03/28 00:29:04;;;;;;;37.40;12.93;;;;;;;10.67;80.68;92796.72;5103201;28;20032;-81
2024/03/28 00:31:30;;;;;;;35.65;11.50;;;;;;;10.67;80.72;92800.16;5103263;28;20038;-81
2024/03/28 00:33:55;;;;;;;39.75;11.93;;;;;;;10.70;80.52;92783.47;5103200;28;20278;-81
2024/03/28 00:36:21;;;;;;;37.47;11.25;;;;;;;10.67;80.66;92791.41;5103157;28;20016;-79
2024/03/28 00:38:46;;;;;;;42.20;13.18;;;;;;;10.67;80.67;92792.16;5103170;28;20324;-80
2024/03/28 00:41:14;;;;;;;41.95;12.35;;;;;;;10.70;80.84;92796.81;5103029;28;20030;-79
2024/03/28 00:43:39;;;;;;;70.40;13.88;;;;;;;10.73;80.86;92790.03;5085065;28;20349;-80
2024/03/28 00:46:05;;;;;;;41.58;12.20;;;;;;;10.71;80.54;92790.38;5102992;28;20042;-80
2024/03/28 00:48:30;;;;;;;37.53;12.25;;;;;;;10.75;80.56;92788.59;5103229;28;20314;-80
2024/03/28 00:50:58;;;;;;;37.72;12.20;;;;;;;10.75;80.72;92796.56;5102838;28;20019;-81
2024/03/28 00:53:24;;;;;;;31.02;11.38;;;;;;;10.77;81.04;92796.25;5102930;28;20077;-81
2024/03/28 00:55:50;;;;;;;42.22;13.13;;;;;;;10.74;80.86;92802.25;5102944;28;20040;-81
2024/03/28 00:58:16;;;;;;;41.80;12.38;;;;;;;10.76;81.20;92805.34;5102752;28;20044;-81
2024/03/28 01:00:45;;;;;;;41.95;11.75;;;;;;;10.73;80.96;92790.03;5102921;28;20040;-81
2024/03/28 01:03:10;;;;;;;41.13;15.00;;;;;;;10.69;81.21;92786.50;5102762;28;20024;-80
2024/03/28 01:05:36;;;;;;;30.00;11.40;;;;;;;10.69;81.30;92783.84;5102656;28;20069;-81
2024/03/28 01:08:01;;;;;;;45.60;13.30;;;;;;;10.77;81.55;92781.03;5102763;28;20024;-81
2024/03/28 01:10:27;;;;;;;45.10;13.13;;;;;;;10.81;81.11;92771.22;5084730;28;20032;-81
2024/03/28 01:12:52;;;;;;;39.42;11.50;;;;;;;10.84;80.98;92785.75;5102846;28;20091;-81
2024/03/28 01:15:18;;;;;;;38.05;11.65;;;;;;;10.90;80.62;92773.75;5102868;28;20027;-80
2024/03/28 01:17:45;;;;;;;41.60;11.32;;;;;;;10.90;80.38;92794.28;5102433;28;20024;-81
2024/03/28 01:20:11;;;;;;;52.13;12.82;;;;;;;10.82;80.83;92788.00;5102622;28;20055;-80
2024/03/28 01:22:39;;;;;;;37.50;13.18;;;;;;;10.77;81.22;92806.91;5085258;28;20035;-80
2024/03/28 01:25:06;;;;;;;45.30;12.52;;;;;;;10.80;80.99;92828.31;5106787;28;20046;-80
2024/03/28 01:27:34;;;;;;;50.00;13.55;;;;;;;10.76;80.98;92816.00;5106909;28;20044;-80
2024/03/28 01:29:59;;;;;;;40.65;12.70;;;;;;;10.70;81.37;92793.38;5106598;28;20016;-80
2024/03/28 01:32:25;;;;;;;51.20;13.98;;;;;;;10.75;81.56;92793.91;5106579;28;20200;-80
2024/03/28 01:34:51;;;;;;;51.08;11.82;;;;;;;10.77;81.41;92791.69;5106440;28;20065;-80
2024/03/28 01:37:16;;;;;;;40.53;12.80;;;;;;;10.73;81.52;92795.38;5106425;28;20020;-80
2024/03/28 01:39:41;;;;;;;45.72;12.05;;;;;;;10.53;82.45;92736.59;5106176;28;20318;-80
2024/03/28 01:42:08;;;;;;;43.00;12.30;;;;;;;10.53;83.15;92720.59;5088237;28;20016;-79
2024/03/28 01:44:35;;;;;;;45.83;12.57;;;;;;;10.61;83.36;92709.03;5106636;28;20313;-79
2024/03/28 01:47:03;;;;;;;48.47;13.70;;;;;;;10.69;83.48;92637.28;5106446;28;20218;-80
2024/03/28 01:49:29;;;;;;;37.92;12.15;;;;;;;10.73;83.32;92641.56;5106243;28;20028;-79
2024/03/28 01:51:56;;;;;;;40.60;12.95;;;;;;;10.64;83.31;92620.44;5106219;28;20016;-79
2024/03/28 01:54:22;;;;;;;42.10;13.93;;;;;;;10.62;83.53;92633.31;5087771;28;20031;-79
2024/03/28 01:56:48;;;;;;;41.30;13.40;;;;;;;10.61;83.78;92607.78;5105922;28;20209;-79
2024/03/28 01:59:15;;;;;;;34.53;14.27;;;;;;;10.55;83.93;92613.72;5106091;28;20032;-79
2024/03/28 02:01:44;;;;;;;37.95;14.23;;;;;;;10.53;84.21;92626.59;5105999;28;20235;-79
2024/03/28 02:04:10;;;;;;;30.42;13.95;;;;;;;10.52;84.67;92641.81;5106045;28;20024;-79
2024/03/28 02:06:36;;;;;;;50.13;14.75;;;;;;;10.51;nan;92650.91;5106087;28;20035;-77
2024/03/28 02:09:03;;;;;;;44.45;14.80;;;;;;;10.54;84.57;92633.47;5105759;28;20274;-77
2024/03/28 02:11:30;;;;;;;39.03;13.50;;;;;;;10.53;84.42;92638.03;5105790;28;20046;-77
2024/03/28 02:13:55;;;;;;;38.28;15.10;;;;;;;10.52;84.63;92636.50;5105705;28;20040;-78
2024/03/28 02:16:21;;;;;;;45.30;12.48;;;;;;;10.50;84.29;92633.38;5105687;28;20036;-77
2024/03/28 02:18:46;;;;;;;44.70;12.75;;;;;;;10.52;83.72;92646.34;5105490;28;20024;-78
2024/03/28 02:21:12;;;;;;;46.15;13.25;;;;;;;10.38;83.95;92652.06;5105602;28;20074;-78
2024/03/28 02:23:37;;;;;;;39.75;12.80;;;;;;;10.24;84.52;92663.88;5105460;28;20020;-78
2024/03/28 02:26:03;;;;;;;40.33;12.93;;;;;;;10.29;84.84;92662.09;5105712;28;20090;-78
2024/03/28 02:28:35;;;;;;;47.35;14.32;;;;;;;10.24;85.12;92669.22;5105365;28;20032;-78
2024/03/28 02:31:01;;;;;;;35.80;12.90;;;;;;;10.18;85.07;92635.94;5105265;28;20020;-77
2024/03/28 02:33:26;;;;;;;41.75;13.07;;;;;;;10.18;85.04;92669.81;5105416;28;20069;-78
2024/03/28 02:35:52;;;;;;;39.90;12.40;;;;;;;10.18;85.06;92654.59;5104574;28;20095;-77
2024/03/28 02:38:17;;;;;;;41.55;12.30;;;;;;;10.20;85.10;92631.06;5087322;28;20341;-77
2024/03/28 02:40:42;;;;;;;52.67;13.43;;;;;;;10.21;85.36;92635.25;5105103;28;20030;-77
2024/03/28 02:43:08;;;;;;;55.05;13.27;;;;;;;10.19;84.97;92629.50;5105353;28;20213;-77
2024/03/28 02:45:33;;;;;;;62.70;12.05;;;;;;;10.16;85.00;92638.19;5087364;28;20047;-77
2024/03/28 02:47:59;;;;;;;55.88;12.55;;;;;;;10.21;84.98;92635.25;5105135;28;20091;-77
2024/03/28 02:50:25;;;;;;;42.28;13.30;;;;;;;10.24;84.75;92639.91;5105149;28;20027;-77
2024/03/28 02:52:50;;;;;;;44.05;11.75;;;;;;;10.28;84.60;92631.22;5105066;28;20318;-77
2024/03/28 02:55:15;;;;;;;39.03;11.85;;;;;;;10.27;84.57;92629.69;5104953;28;20036;-77
2024/03/28 02:57:41;;;;;;;32.13;10.77;;;;;;;10.23;84.59;92614.38;5104826;28;20333;-77
2024/03/28 03:00:08;;;;;;;46.15;10.40;;;;;;;10.30;84.22;92619.19;5104842;28;20020;-77
2024/03/28 03:02:34;;;;;;;37.80;10.40;;;;;;;10.33;83.84;92617.72;5104845;28;20023;-77
2024/03/28 03:04:59;;;;;;;42.00;10.85;;;;;;;10.23;83.71;92609.06;5104737;28;20019;-77
2024/03/28 03:07:24;;;;;;;48.10;12.25;;;;;;;10.18;83.93;92627.97;5104732;28;20020;-77
2024/03/28 03:09:50;;;;;;;48.75;12.15;;;;;;;10.07;84.56;92594.19;5104626;28;20092;-77
2024/03/28 03:12:15;;;;;;;41.05;11.18;;;;;;;10.07;84.76;92632.22;5086204;28;20020;-78
2024/03/28 03:14:40;;;;;;;37.25;11.55;;;;;;;10.02;84.75;92625.25;5104466;28;20053;-79
2024/03/28 03:17:06;;;;;;;44.15;11.07;;;;;;;9.95;85.07;92614.44;5104751;28;20214;-78
2024/03/28 03:19:31;;;;;;;49.22;13.18;;;;;;;9.95;85.35;92613.63;5104341;28;20022;-78
2024/03/28 03:21:56;;;;;;;39.90;10.95;;;;;;;9.93;85.31;92611.31;5104594;28;20020;-79
2024/03/28 03:24:22;;;;;;;41.70;11.57;;;;;;;9.96;85.40;92599.22;5086367;28;20023;-79
2024/03/28 03:26:50;;;;;;;37.30;10.00;;;;;;;10.01;85.10;92612.28;5104422;28;20391;-79
2024/03/28 03:34:45;;;;;;;53.78;11.38;;;;;;;9.93;85.26;92623.84;5104378;28;20039;-78
2024/03/28 03:37:19;;;;;;;44.35;10.63;;;;;;;9.96;85.46;92620.53;5104230;28;20028;-78
2024/03/28 03:39:44;;;;;;;42.75;10.18;;;;;;;9.95;85.35;92634.91;5103924;28;20322;-78
2024/03/28 03:42:10;;;;;;;44.20;9.63;;;;;;;9.87;85.78;92655.28;5104035;28;20036;-78
2024/03/28 03:44:36;;;;;;;34.55;9.55;;;;;;;9.92;85.90;92647.03;5104311;28;20024;-79
2024/03/28 03:47:01;;;;;;;46.78;8.98;;;;;;;9.90;85.52;92669.78;5102989;28;20200;-79
2024/03/28 03:49:27;;;;;;;48.10;9.18;;;;;;;9.92;85.17;92672.88;5103979;28;20306;-78
2024/03/28 03:51:52;;;;;;;39.88;9.93;;;;;;;9.97;85.01;92678.75;5104079;28;20016;-78
2024/03/28 03:54:18;;;;;;;49.95;11.73;;;;;;;10.00;85.19;92663.97;5103679;28;20041;-78
2024/03/28 03:56:43;;;;;;;47.30;8.88;;;;;;;10.03;83.98;92658.75;5082385;28;20063;-78
2024/03/28 03:59:09;;;;;;;64.38;9.63;;;;;;;10.25;79.28;92654.00;5083667;28;20036;-78
2024/03/28 04:01:34;;;;;;;63.40;11.18;;;;;;;10.83;75.71;92645.63;5082206;28;20100;-78
2024/03/28 04:03:59;;;;;;;44.50;6.72;;;;;;;11.31;72.94;92646.34;5083283;28;20028;-78
2024/03/28 04:06:25;;;;;;;49.20;8.13;;;;;;;11.87;68.61;92612.47;5083367;28;20054;-78
2024/03/28 04:08:50;;;;;;;38.80;5.95;;;;;;;12.28;68.24;92656.41;5083232;28;20016;-78
2024/03/28 04:11:16;;;;;;;31.35;5.20;;;;;;;12.67;66.01;92642.22;5083283;28;20027;-78
2024/03/28 04:13:41;;;;;;;36.85;6.43;;;;;;;12.99;63.37;92646.22;5083341;28;20062;-78
2024/03/28 04:16:07;;;;;;;34.10;6.43;;;;;;;13.21;62.62;92635.88;5083345;28;20024;-78
2024/03/28 04:18:32;;;;;;;41.22;6.15;;;;;;;13.54;61.79;92650.53;5083261;28;20016;-78
2024/03/28 04:20:58;;;;;;;39.40;7.55;;;;;;;13.11;68.41;92692.63;5083115;28;20024;-78
2024/03/28 04:23:23;;;;;;;36.20;9.05;;;;;;;12.29;73.15;92697.25;5082961;28;20035;-77
2024/03/28 04:25:56;;;;;;;52.08;9.60;;;;;;;11.84;75.88;92704.69;5082918;28;20323;-78
2024/03/28 04:28:22;;;;;;;39.17;8.38;;;;;;;11.42;77.92;92700.72;5083281;28;20020;-79
2024/03/28 04:30:47;;;;;;;38.70;9.05;;;;;;;11.33;78.53;92742.03;5083065;28;20074;-79
2024/03/28 04:33:13;;;;;;;37.42;11.00;;;;;;;11.27;78.90;92733.50;5082841;28;20021;-79
2024/03/28 04:35:40;;;;;;;36.88;8.98;;;;;;;11.24;79.12;92740.31;5083353;28;20025;-79
2024/03/28 04:38:06;;;;;;;36.67;11.38;;;;;;;11.26;79.41;92731.22;5083146;28;20016;-79
2024/03/28 04:40:31;;;;;;;34.72;10.32;;;;;;;11.26;79.30;92726.66;5082845;28;20043;-79
2024/03/28 04:42:57;;;;;;;29.77;8.15;;;;;;;11.27;79.31;92722.06;5083136;28;20028;-79
2024/03/28 04:45:22;;;;;;;44.13;8.50;;;;;;;11.24;79.23;92731.56;5083080;28;20099;-80
2024/03/28 04:47:49;;;;;;;26.02;7.55;;;;;;;11.23;79.39;92717.44;5082919;28;20024;-79
2024/03/28 04:50:15;;;;;;;35.13;7.75;;;;;;;11.28;79.04;92720.97;5082946;28;20020;-78
2024/03/28 04:52:41;;;;;;;36.83;7.15;;;;;;;11.33;78.91;92747.38;5082919;28;20024;-79
2024/03/28 04:55:07;;;;;;;42.42;7.13;;;;;;;11.35;78.66;92737.91;5082910;28;20027;-79
2024/03/28 04:57:33;;;;;;;40.13;9.90;;;;;;;11.41;78.70;92749.09;5092804;28;20074;-79
2024/03/28 04:59:59;;;;;;;35.22;7.10;;;;;;;11.43;78.58;92757.53;5102778;28;20020;-79
2024/03/28 05:02:25;;;;;;;47.63;8.80;;;;;;;11.33;79.02;92776.72;5102870;28;20023;-79
2024/03/28 05:04:50;;;;;;;38.30;8.32;;;;;;;11.37;79.28;92773.00;5102782;28;20016;-79
2024/03/28 05:07:16;;;;;;;32.85;7.38;;;;;;;11.39;79.42;92762.00;5102604;28;20016;-79
2024/03/28 05:09:44;;;;;;;36.17;7.88;;;;;;;11.36;79.16;92784.06;5102533;28;20091;-79
2024/03/28 05:12:10;;;;;;;55.28;9.50;;;;;;;11.37;79.36;92817.59;5102860;28;20015;-78
2024/03/28 05:14:35;;;;;;;40.60;8.80;;;;;;;11.20;79.33;92816.03;5084590;28;20329;-78
2024/03/28 05:17:00;;;;;;;35.47;9.07;;;;;;;11.20;79.59;92819.47;5102743;28;20065;-79
2024/03/28 05:19:26;;;;;;;32.90;8.43;;;;;;;11.13;79.87;92834.50;5102895;28;20024;-79
2024/03/28 05:21:51;;;;;;;33.22;7.90;;;;;;;11.12;79.94;92822.31;5101621;28;20032;-79
2024/03/28 05:24:17;;;;;;;36.08;8.50;;;;;;;11.01;80.63;92843.34;5102778;28;20091;-79
2024/03/28 05:26:42;;;;;;;31.98;8.50;;;;;;;10.89;81.07;92819.38;5102810;28;20023;-79
2024/03/28 05:29:08;;;;;;;40.05;8.60;;;;;;;10.90;81.45;92803.06;5102863;28;20200;-79
2024/03/28 05:31:33;;;;;;;30.67;8.07;;;;;;;10.96;81.42;92831.03;5102284;28;20353;-79
2024/03/28 05:33:59;;;;;;;34.42;7.97;;;;;;;11.04;81.22;92843.44;5102230;28;20218;-78
2024/03/28 05:36:24;;;;;;;27.67;7.10;;;;;;;11.14;81.04;92868.06;5102481;28;20023;-77
2024/03/28 05:38:50;;;;;;;44.50;10.10;;;;;;;11.25;80.75;92874.44;5102518;28;20065;-78
2024/03/28 05:41:16;;;;;;;38.00;7.28;;;;;;;11.26;80.14;92849.34;5102241;28;20047;-79
2024/03/28 05:43:41;;;;;;;47.75;8.32;;;;;;;11.28;80.35;92867.69;5102533;28;20063;-79
2024/03/28 05:46:07;;;;;;;33.47;8.52;;;;;;;11.40;80.00;92908.41;5102092;28;20020;-79
2024/03/28 05:48:32;;;;;;;44.30;7.45;;;;;;;11.59;78.98;92893.63;5102372;28;20341;-79
2024/03/28 05:50:57;;;;;;;40.50;7.93;;;;;;;11.65;78.78;92924.28;5102205;28;20012;-78
2024/03/28 05:53:23;;;;;;;46.50;7.72;;;;;;;11.77;79.18;92918.13;5102405;28;20023;-78
2024/03/28 05:55:48;;;;;;;37.00;8.98;;;;;;;11.85;79.69;92952.66;5102248;28;20020;-78
2024/03/28 05:58:14;;;;;;;26.25;7.72;;;;;;;11.59;82.20;92989.72;5102277;28;20046;-78
2024/03/28 06:00:39;;;;;;;39.40;9.23;;;;;;;11.42;82.95;92974.78;5102289;28;20344;-78
2024/03/28 06:03:04;;;;;;;36.55;6.45;;;;;;;11.41;83.60;92941.97;5101927;28;20040;-78
2024/03/28 06:05:31;;;;;;;33.45;7.07;;;;;;;11.52;84.57;92922.78;5102137;28;20020;-80
2024/03/28 06:07:56;;;;;;;35.63;6.72;;;;;;;11.61;84.37;92944.78;5102090;28;20016;-79
2024/03/28 06:10:22;;;;;;;34.08;4.28;;;;;;;11.79;79.95;92932.66;5104147;28;20019;-79
2024/03/28 06:12:47;;;;;;;27.30;5.90;;;;;;;11.96;82.78;92946.84;5105805;28;20322;-79
2024/03/28 06:15:13;;;;;;;25.05;3.65;;;;;;;12.19;77.90;92957.69;5105653;28;20048;-79
2024/03/28 06:17:38;;;;;;;14.80;3.97;;;;;;;12.35;78.03;92998.56;5105877;28;20166;-80
2024/03/28 06:20:05;;;;;;;18.20;3.88;;;;;;;12.36;72.07;92977.97;5105678;28;20095;-79
2024/03/28 06:22:30;;;;;;;16.85;2.53;;;;;;;12.40;66.75;92974.25;5105608;28;20081;-77
2024/03/28 06:24:56;;;;;;;36.38;5.22;;;;;;;12.33;66.27;92992.00;5105748;28;20308;-78
2024/03/28 06:27:22;;;;;;;26.15;3.45;;;;;;;12.37;71.66;92974.94;5105354;28;20322;-78
2024/03/28 06:29:51;;;;;;;24.55;2.78;;;;;;;12.32;66.55;92942.38;5105275;28;20051;-78
2024/03/28 06:32:40;;;;;;;23.33;3.75;;;;;;;12.30;70.18;92982.03;5105392;28;20016;-79
2024/03/28 06:35:05;;;;;;;29.15;4.38;;;;;;;12.12;69.17;92974.34;5104883;28;20032;-79
2024/03/28 06:37:31;;;;;;;35.40;4.25;;;;;;;12.13;67.82;92972.44;5105159;28;20070;-79
2024/03/28 06:39:57;;;;;;;24.83;3.92;;;;;;;12.22;63.37;93010.44;5105460;28;20027;-79
2024/03/28 06:42:22;;;;;;;22.23;3.03;;;;;;;12.44;62.33;92995.72;5105523;28;20020;-83
2024/03/28 06:44:52;;;;;;;19.40;3.38;;;;;;;12.49;63.63;92992.78;5105321;28;20034;-85
2024/03/28 06:47:18;;;;;;;28.17;4.30;;;;;;;12.64;65.47;92992.00;5104842;28;20015;-85
2024/03/28 06:49:43;;;;;;;32.35;3.80;;;;;;;12.77;61.69;93010.63;5105291;28;20183;-84
2024/03/28 06:52:09;;;;;;;23.58;4.10;;;;;;;12.92;57.66;93009.81;5105300;28;20673;-82
2024/03/28 06:54:35;;;;;;;25.63;3.40;;;;;;;13.09;60.75;93010.53;5105082;28;20069;-79
2024/03/28 06:57:01;;;;;;;30.02;3.95;;;;;;;13.24;63.30;93017.78;5107557;28;20230;-90
2024/03/28 06:59:26;;;;;;;25.02;3.53;;;;;;;13.36;58.38;93046.34;5105906;28;20024;-92
2024/03/28 07:01:52;;;;;;;20.35;3.33;;;;;;;13.55;59.75;93040.22;5105112;28;20048;-86
2024/03/28 07:04:17;;;;;;;21.73;4.90;;;;;;;13.69;63.63;93056.59;5086900;28;20024;-85
2024/03/28 07:06:43;;;;;;;23.02;3.50;;;;;;;13.73;68.11;93054.00;5087031;28;20024;-85
2024/03/28 07:09:08;;;;;;;25.38;3.10;;;;;;;13.69;68.96;93077.25;5086851;28;20054;-85
2024/03/28 07:11:34;;;;;;;27.45;4.45;;;;;;;13.65;69.84;93093.22;5104520;28;20249;-85
2024/03/28 07:13:59;;;;;;;23.48;3.75;;;;;;;13.61;71.75;93116.47;5086594;28;20064;-84
2024/03/28 07:16:25;;;;;;;24.98;4.70;;;;;;;13.46;73.26;93128.00;5104235;28;20395;-82
2024/03/28 07:18:52;;;;;;;22.85;3.63;;;;;;;13.29;74.10;93139.81;5104447;28;20020;-85
2024/03/28 07:21:18;;;;;;;31.23;4.43;;;;;;;13.23;75.83;93150.81;5104020;28;20196;-82
2024/03/28 07:23:43;;;;;;;13.68;3.72;;;;;;;13.20;77.40;93148.03;5104874;28;20031;-82
2024/03/28 07:26:08;;;;;;;12.73;3.95;;;;;;;13.03;77.84;93136.56;5104280;28;20250;-82
2024/03/28 07:28:38;;;;;;;22.63;4.30;;;;;;;12.97;78.83;93145.19;5103995;28;20113;-82
2024/03/28 07:31:04;;;;;;;19.38;4.00;;;;;;;12.95;79.15;93158.13;5103390;28;20019;-82
2024/03/28 07:33:29;;;;;;;26.70;4.63;;;;;;;13.01;77.72;93162.88;5104408;28;20016;-82
2024/03/28 07:36:00;;;;;;;20.55;4.10;;;;;;;13.09;79.30;93174.53;5104515;28;20020;-83
2024/03/28 07:38:29;;;;;;;34.60;5.57;;;;;;;13.23;78.68;93168.75;5103219;28;20098;-83
2024/03/28 07:40:59;;;;;;;26.30;4.50;;;;;;;13.36;77.65;93170.22;5103979;28;20069;-83
2024/03/28 07:43:32;;;;;;;25.45;4.72;;;;;;;13.50;77.00;93163.66;5085723;28;20086;-81
2024/03/28 07:46:04;;;;;;;16.42;3.58;;;;;;;13.64;76.60;93175.47;5103668;28;20035;-81
2024/03/28 07:48:39;;;;;;;20.83;3.80;;;;;;;13.75;76.77;93170.34;5102253;28;20115;-82
2024/03/28 07:51:08;;;;;;;28.40;4.95;;;;;;;13.91;76.54;93180.25;5103635;28;20024;-82
2024/03/28 07:53:36;;;;;;;26.55;5.28;;;;;;;13.98;74.84;93183.06;5103551;28;20031;-82
2024/03/28 07:56:07;;;;;;;40.25;6.30;;;;;;;14.05;72.78;93188.59;5085396;28;20314;-82
2024/03/28 07:58:37;;;;;;;17.27;4.83;;;;;;;14.14;72.54;93180.34;5103551;28;20289;-82
2024/03/28 08:01:11;;;;;;;25.92;4.75;;;;;;;14.31;72.67;93181.81;5103287;28;20031;-82
2024/03/28 08:03:37;;;;;;;35.03;6.85;;;;;;;14.39;71.85;93180.84;5103432;28;20311;-81
2024/03/28 08:06:14;;;;;;;21.67;5.15;;;;;;;14.53;70.67;93185.72;5103479;28;20039;-82
2024/03/28 08:08:41;;;;;;;34.25;4.25;;;;;;;14.69;67.82;93191.03;5103667;28;20030;-81
2024/03/28 08:11:09;;;;;;;25.00;4.65;;;;;;;14.79;67.01;93193.13;5103116;28;20024;-82
2024/03/28 08:14:25;;;;;;;19.05;3.70;;;;;;;14.88;66.38;93185.66;5085236;28;20032;-86
2024/03/28 08:16:43;;;;;;;20.20;4.20;;;;;;;14.97;66.57;93191.53;5087383;28;20055;-85
2024/03/28 08:19:15;;;;;;;26.27;4.50;;;;;;;15.04;66.31;93194.34;5103004;28;20020;-84
2024/03/28 08:21:42;;;;;;;24.95;3.90;;;;;;;14.99;64.18;93197.31;5085426;28;20222;-83
2024/03/28 08:24:30;;;;;;;;;;;;;;;;;;;;;
2024/03/28 08:31:58;;;;;;;27.33;4.50;;;;;;;15.35;64.71;93195.25;4962471;29;20341;-84
2024/03/28 08:34:53;;;;;;;28.40;5.07;;;;;;;15.47;62.43;93175.50;4956181;28;20062;-83
2024/03/28 08:38:10;;;;;;;;;;;;;;;;;;;;;
2024/03/28 08:48:11;;;;;;;26.17;3.55;;;;;;;16.08;50.61;93170.22;4932966;28;20028;-85
2024/03/28 08:50:58;;;;;;;;;;;;;;;;;;;;;
2024/03/28 08:53:28;;;;;;;41.03;4.07;;;;;;;16.37;49.81;93179.47;5060698;28;20057;-84
2024/03/28 08:56:17;;;;;;;23.40;3.95;;;;;;;16.45;48.30;93178.41;5044128;28;20029;-84
2024/03/28 08:58:43;;;;;;;19.15;2.95;;;;;;;16.57;45.00;93174.69;5060679;28;20041;-85
2024/03/28 09:01:09;;;;;;;22.88;3.60;;;;;;;16.69;42.58;93177.13;5078262;28;20028;-84
2024/03/28 09:03:34;;;;;;;24.33;3.25;;;;;;;16.76;42.67;93171.06;5102648;28;20073;-85
2024/03/28 09:06:00;;;;;;;18.52;3.38;;;;;;;16.83;44.58;93171.94;5084735;28;20016;-85
2024/03/28 09:08:26;;;;;;;20.40;3.67;;;;;;;16.94;43.03;93174.72;5102720;28;20027;-84
2024/03/28 09:10:55;;;;;;;23.65;3.30;;;;;;;17.02;41.71;93172.88;5102647;28;20018;-85
2024/03/28 09:13:21;;;;;;;24.30;3.20;;;;;;;17.13;42.23;93165.66;5102628;28;20016;-84
2024/03/28 09:15:47;;;;;;;20.40;2.65;;;;;;;17.29;41.42;93170.81;5102623;28;20345;-85
2024/03/28 09:18:12;;;;;;;13.38;2.50;;;;;;;17.38;37.41;93173.97;5102457;28;20288;-84
2024/03/28 09:20:38;;;;;;;25.20;3.40;;;;;;;17.41;38.02;93170.53;5102477;28;20250;-85
2024/03/28 09:23:03;;;;;;;21.02;3.10;;;;;;;17.43;36.97;93162.09;5102542;28;20016;-85
2024/03/28 09:25:29;;;;;;;19.75;2.60;;;;;;;17.50;39.06;93169.44;5084330;28;20338;-85
2024/03/28 09:27:54;;;;;;;24.95;4.43;;;;;;;17.60;37.75;93182.22;5084460;28;20016;-84
2024/03/28 09:30:21;;;;;;;27.92;2.78;;;;;;;17.69;36.56;93179.19;5102394;28;20294;-84
2024/03/28 09:32:47;;;;;;;29.70;3.03;;;;;;;17.71;34.23;93190.38;5101311;28;20024;-84
2024/03/28 09:35:14;;;;;;;23.35;2.92;;;;;;;17.71;33.44;93191.16;5102619;28;20023;-84
2024/03/28 09:37:39;;;;;;;24.00;4.28;;;;;;;17.62;34.30;93193.41;5102303;28;20026;-84
2024/03/28 09:40:13;;;;;;;19.35;2.97;;;;;;;17.70;36.82;93192.31;5102176;28;20241;-84
2024/03/28 09:42:40;;;;;;;19.70;3.28;;;;;;;17.81;36.11;93195.88;5102527;28;20099;-84
2024/03/28 09:45:06;;;;;;;39.25;3.28;;;;;;;17.75;35.51;93185.81;5103951;28;20067;-84
2024/03/28 09:47:33;;;;;;;26.75;3.55;;;;;;;17.55;34.54;93186.03;5106065;28;20203;-83
2024/03/28 09:50:00;;;;;;;21.55;3.17;;;;;;;17.50;34.58;93180.97;5106317;28;20024;-84
2024/03/28 09:52:28;;;;;;;13.95;2.28;;;;;;;17.52;35.31;93186.00;5106160;28;20024;-84
2024/03/28 09:54:54;;;;;;;40.38;3.60;;;;;;;17.54;35.57;93186.41;5106271;28;20099;-84
2024/03/28 09:57:20;;;;;;;25.23;4.63;;;;;;;17.71;36.72;93191.16;5106010;28;20198;-84
2024/03/28 09:59:45;;;;;;;32.15;3.53;;;;;;;17.87;37.24;93182.03;5106202;28;20056;-84
2024/03/28 10:02:27;;;;;;;34.40;3.17;;;;;;;18.07;36.74;93196.03;5105964;28;20039;-84
2024/03/28 10:04:55;;;;;;;21.23;2.65;;;;;;;18.12;34.06;93190.31;5106218;28;20108;-84
2024/03/28 10:07:22;;;;;;;26.60;2.95;;;;;;;18.12;34.47;93198.41;5105825;28;20024;-84
2024/03/28 10:09:49;;;;;;;42.97;6.72;;;;;;;18.30;34.87;93203.88;5105820;28;20035;-83
2024/03/28 10:12:16;;;;;;;34.75;3.92;;;;;;;18.48;34.51;93220.94;5105922;28;20024;-84
2024/03/28 10:14:55;;;;;;;30.63;3.63;;;;;;;18.67;34.20;93211.00;5106047;28;20200;-84
2024/03/28 10:17:20;;;;;;;18.83;2.83;;;;;;;18.83;33.91;93208.78;5105860;28;20028;-83
2024/03/28 10:20:00;;;;;;;18.27;3.30;;;;;;;18.93;33.94;93208.03;5087641;28;20421;-83
2024/03/28 10:22:26;;;;;;;18.85;2.63;;;;;;;19.13;32.80;93207.69;5105620;28;20062;-83
2024/03/28 10:24:51;;;;;;;26.05;4.55;;;;;;;19.22;32.53;93210.81;5087042;28;20028;-84
2024/03/28 10:27:21;;;;;;;18.23;2.33;;;;;;;19.23;31.26;93204.22;5105582;28;20033;-82
2024/03/28 10:29:53;;;;;;;28.10;3.03;;;;;;;19.32;30.95;93217.38;5105431;28;20024;-84
2024/03/28 10:32:19;;;;;;;24.70;2.88;;;;;;;19.38;31.91;93222.03;5105207;28;20379;-84
2024/03/28 10:34:53;;;;;;;22.40;2.53;;;;;;;19.42;32.03;93212.00;5105326;28;20032;-83
2024/03/28 10:37:20;;;;;;;25.75;3.38;;;;;;;19.61;31.26;93215.47;5105299;28;20319;-84
2024/03/28 10:39:49;;;;;;;20.17;2.67;;;;;;;19.69;31.34;93206.22;5105211;28;20032;-84
2024/03/28 10:42:16;;;;;;;20.30;2.72;;;;;;;19.73;31.33;93201.59;5104913;28;20032;-83
2024/03/28 10:44:46;;;;;;;31.55;2.88;;;;;;;19.63;31.12;93211.22;5105087;28;20047;-82
2024/03/28 10:47:15;;;;;;;28.15;2.70;;;;;;;19.65;31.68;93214.31;5104907;28;20024;-83
2024/03/28 10:49:48;;;;;;;16.10;2.65;;;;;;;19.88;32.09;93210.47;5104993;28;20024;-82
2024/03/28 10:52:24;;;;;;;20.40;2.78;;;;;;;20.04;31.13;93218.19;5105068;28;20024;-83
2024/03/28 10:55:04;;;;;;;20.95;2.40;;;;;;;20.15;30.87;93226.28;5104607;28;20024;-83
2024/03/28 10:57:32;;;;;;;18.27;2.17;;;;;;;20.32;29.89;93216.59;5104364;28;20044;-82
2024/03/28 10:59:59;;;;;;;13.52;2.60;;;;;;;20.40;30.96;93213.50;5104529;28;20086;-83
2024/03/28 11:02:27;;;;;;;29.23;2.63;;;;;;;20.36;28.35;93211.97;5104684;28;20031;-83
2024/03/28 11:04:54;;;;;;;31.88;3.92;;;;;;;20.32;29.29;93203.06;5086540;28;20215;-83
2024/03/28 11:07:21;;;;;;;20.20;2.70;;;;;;;20.32;29.37;93195.72;5104456;28;20020;-83
2024/03/28 11:09:49;;;;;;;12.85;3.08;;;;;;;20.37;27.57;93189.13;5104667;28;20019;-83
2024/03/28 11:12:15;;;;;;;23.48;2.45;;;;;;;20.44;28.72;93181.00;5104783;28;20024;-83
2024/03/28 11:14:56;;;;;;;19.13;2.30;;;;;;;20.51;28.44;93204.56;5104502;28;20281;-83
2024/03/28 11:17:21;;;;;;;22.60;3.97;;;;;;;20.58;27.92;93231.63;5104466;28;20024;-83
2024/03/28 11:20:08;;;;;;;21.15;2.75;;;;;;;20.64;28.35;93222.72;5104426;28;20054;-83
2024/03/28 11:22:34;;;;;;;19.08;2.63;;;;;;;20.73;28.44;93210.72;5104144;28;20223;-83
2024/03/28 11:24:59;;;;;;;14.57;2.30;;;;;;;20.82;27.72;93200.22;5104265;28;20024;-83
2024/03/28 11:27:24;;;;;;;21.23;2.20;;;;;;;20.88;26.90;93198.63;5104075;28;20375;-83
2024/03/28 11:30:07;;;;;;;20.85;3.03;;;;;;;21.02;27.85;93193.16;5103904;28;20047;-83
2024/03/28 11:32:33;;;;;;;19.38;2.40;;;;;;;21.19;27.93;93190.75;5086072;28;20028;-83
2024/03/28 11:35:09;;;;;;;20.67;3.10;;;;;;;21.33;27.52;93206.94;5104103;28;20315;-83
2024/03/28 11:37:34;;;;;;;15.73;2.22;;;;;;;21.54;27.19;93197.13;5104035;28;20019;-83
2024/03/28 11:39:59;;;;;;;12.85;3.22;;;;;;;21.59;24.87;93207.53;5103829;28;20364;-82
2024/03/28 11:42:25;;;;;;;25.73;2.78;;;;;;;21.39;25.08;93226.22;5103909;28;20061;-83
2024/03/28 11:44:50;;;;;;;22.70;3.28;;;;;;;21.20;26.61;93222.09;5103936;28;20012;-83
2024/03/28 11:47:22;;;;;;;15.43;2.38;;;;;;;21.22;26.33;93211.63;5103773;28;20023;-83